Time;durP1;ratioP1;P1;durP2;ratioP2;P2;SDS_P1;SDS_P2;PMS_P1;PMS_P2;Temp;Humidity;BMP_temperature;BMP_pressure;BME280_temperature;BME280_humidity;BME280_pressure;Samples;Min_cycle;Max_cycle;Signal;HPM_P1;HPM_P2
2022/04/02 00:02:15;;;;;;;3.75;2.60;;;0.90;5.50;;;0.74;55.42;100546.13;4965312;28;20223;-67
2022/04/02 00:04:44;;;;;;;6.22;2.65;;;0.90;5.70;;;0.74;55.65;100544.28;4958367;28;20196;-68
2022/04/02 00:07:13;;;;;;;4.65;2.75;;;0.90;5.80;;;0.72;55.79;100551.63;4957061;29;20216;-68
2022/04/02 00:09:43;;;;;;;3.95;2.58;;;0.80;5.90;;;0.67;56.02;100537.91;4957498;28;20185;-67
2022/04/02 00:12:12;;;;;;;6.97;3.88;;;0.80;6.10;;;0.61;56.02;100540.31;4956668;29;20181;-67
2022/04/02 00:14:42;;;;;;;4.57;3.47;;;0.80;6.40;;;0.61;56.54;100538.47;4955059;29;20797;-66
2022/04/02 00:17:11;;;;;;;4.28;3.15;;;0.80;6.60;;;0.57;56.36;100541.59;4956249;29;20561;-67
2022/04/02 00:19:41;;;;;;;5.38;3.30;;;0.70;6.60;;;0.52;56.31;100550.00;4956634;28;20199;-68
2022/04/02 00:22:10;;;;;;;4.38;2.72;;;0.70;6.90;;;0.55;56.79;100547.03;4957024;28;20176;-66
2022/04/02 00:24:39;;;;;;;5.55;3.10;;;0.70;7.10;;;0.55;57.24;100548.88;4955955;29;20207;-67
2022/04/02 00:27:09;;;;;;;12.27;3.25;;;0.70;7.20;;;0.47;57.12;100543.44;4956514;28;20208;-68
2022/04/02 00:29:40;;;;;;;5.75;3.30;;;0.70;7.50;;;0.46;57.29;100539.94;4955436;29;20232;-66
2022/04/02 00:32:10;;;;;;;5.07;2.90;;;0.60;7.70;;;0.42;57.33;100550.03;4956351;29;20172;-68
2022/04/02 00:34:40;;;;;;;6.47;3.15;;;0.60;8.00;;;0.33;57.44;100545.59;4956517;28;20210;-66
2022/04/02 00:37:09;;;;;;;4.45;3.28;;;0.50;8.30;;;0.38;58.04;100550.50;4956094;28;20717;-67
2022/04/02 00:39:38;;;;;;;5.40;2.97;;;0.60;8.60;;;0.32;58.54;100561.69;4954197;29;20188;-67
2022/04/02 00:42:09;;;;;;;6.45;3.30;;;0.50;9.00;;;0.31;57.85;100552.03;4955637;28;20196;-68
2022/04/02 00:44:39;;;;;;;4.93;3.05;;;0.50;9.20;;;0.22;58.47;100543.09;4955726;28;20211;-68
2022/04/02 00:47:09;;;;;;;7.55;2.33;;;0.40;9.60;;;0.29;58.84;100543.38;4956041;28;20204;-68
2022/04/02 00:49:38;;;;;;;4.70;3.75;;;0.50;9.90;;;0.25;58.64;100542.81;4955579;28;20665;-68
2022/04/02 00:52:09;;;;;;;2.97;2.58;;;0.50;10.40;;;0.27;59.05;100555.97;4955936;29;20605;-67
2022/04/02 00:54:40;;;;;;;4.43;2.85;;;0.40;10.70;;;0.24;58.74;100549.09;4970462;28;20642;-67
2022/04/02 00:57:09;;;;;;;6.47;3.15;;;0.40;11.00;;;0.20;59.26;100539.72;4970334;28;20686;-67
2022/04/02 00:59:39;;;;;;;5.30;3.05;;;0.40;11.30;;;0.27;59.08;100555.97;4953867;29;20215;-67
2022/04/02 01:02:08;;;;;;;4.68;3.00;;;0.40;11.60;;;0.12;59.67;100542.28;4956031;29;20200;-67
2022/04/02 01:04:37;;;;;;;9.38;3.42;;;0.40;12.10;;;0.23;59.45;100550.09;4955283;28;20184;-67
2022/04/02 01:07:09;;;;;;;6.80;2.97;;;0.40;12.50;;;0.20;59.49;100553.03;4953687;28;20227;-68
2022/04/02 01:09:41;;;;;;;5.05;2.55;;;0.40;12.80;;;0.19;60.07;100554.03;4954379;29;20227;-67
2022/04/02 01:12:12;;;;;;;5.93;4.25;;;0.40;13.10;;;0.16;59.72;100558.78;4970916;28;20192;-67
2022/04/02 01:14:43;;;;;;;4.25;2.63;;;0.40;13.40;;;0.16;59.69;100556.13;4954256;29;20661;-67
2022/04/02 01:17:22;;;;;;;9.93;3.05;;;0.40;13.70;;;0.25;59.60;100556.09;4955291;28;20622;-69
2022/04/02 01:19:53;;;;;;;7.60;3.13;;;0.40;14.20;;;0.22;60.26;100556.41;4954286;29;20224;-68
2022/04/02 01:22:30;;;;;;;4.15;2.53;;;0.40;14.40;;;0.15;60.30;100557.09;4955016;29;20195;-69
2022/04/02 01:25:05;;;;;;;5.00;3.35;;;0.40;14.70;;;0.14;60.34;100566.94;4953576;28;20223;-67
2022/04/02 01:27:40;;;;;;;5.00;2.90;;;0.30;15.10;;;0.17;60.63;100563.97;4953519;29;20200;-66
2022/04/02 01:30:13;;;;;;;5.05;3.25;;;0.40;15.60;;;0.13;60.81;100569.72;4954807;29;20565;-68
2022/04/02 01:32:43;;;;;;;3.92;3.00;;;0.30;15.80;;;0.14;60.57;100574.91;4953720;29;20632;-68
2022/04/02 01:35:14;;;;;;;5.45;2.47;;;0.30;16.40;;;0.13;60.75;100564.41;4969681;28;20727;-67
2022/04/02 01:37:55;;;;;;;3.47;2.88;;;0.30;16.80;;;0.19;60.52;100567.34;4953366;29;20665;-68
2022/04/02 01:40:25;;;;;;;4.00;2.45;;;0.40;17.30;;;0.17;61.08;100561.31;4969435;28;20196;-67
2022/04/02 01:42:55;;;;;;;4.18;2.65;;;0.30;17.70;;;0.21;60.84;100567.19;4953733;29;20196;-68
2022/04/02 01:45:24;;;;;;;6.47;3.35;;;0.40;18.20;;;0.16;61.67;100559.63;4953376;28;20311;-67
2022/04/02 01:47:57;;;;;;;4.88;3.03;;;0.40;18.70;;;0.17;61.63;100565.78;4969546;28;20192;-66
2022/04/02 01:50:37;;;;;;;6.28;3.33;;;0.40;19.20;;;0.15;61.33;100562.44;4952578;29;20290;-68
2022/04/02 01:53:08;;;;;;;2.65;1.73;;;0.40;19.70;;;0.19;61.34;100556.72;4953280;29;20259;-68
2022/04/02 01:55:39;;;;;;;4.65;3.45;;;0.40;20.30;;;0.16;61.88;100559.63;4953410;28;20227;-68
2022/04/02 01:58:22;;;;;;;3.75;2.67;;;0.40;20.50;;;0.12;61.84;100563.56;4953220;29;20287;-68
2022/04/02 02:00:54;;;;;;;4.47;2.70;;;0.30;21.40;;;0.18;62.00;100552.38;4953003;29;20195;-68
2022/04/02 02:03:24;;;;;;;3.95;2.72;;;0.30;22.20;;;0.13;61.89;100556.44;4953424;29;20199;-67
2022/04/02 02:05:54;;;;;;;3.33;2.28;;;0.30;22.70;;;0.09;62.44;100552.38;4968786;28;20227;-68
2022/04/02 02:08:24;;;;;;;4.20;2.65;;;0.30;23.60;;;0.13;62.70;100562.59;4954035;28;20204;-68
2022/04/02 02:10:58;;;;;;;7.82;4.50;;;0.30;24.50;;;0.09;62.72;100553.22;4968876;28;20222;-67
2022/04/02 02:13:39;;;;;;;5.15;2.60;;;0.30;24.90;;;-0.02;62.84;100561.34;4953883;29;20221;-67
2022/04/02 02:16:18;;;;;;;3.85;3.33;;;0.20;25.90;;;0.03;63.01;100564.44;4952592;28;20224;-68
2022/04/02 02:18:50;;;;;;;6.68;3.03;;;0.20;27.00;;;0.11;63.31;100566.38;4952384;29;20641;-68
2022/04/02 02:21:19;;;;;;;3.53;2.85;;;0.30;28.00;;;0.16;62.54;100569.44;4953949;28;20196;-69
2022/04/02 02:23:49;;;;;;;6.03;2.60;;;0.30;28.20;;;0.07;62.94;100557.00;4968614;28;20220;-67
2022/04/02 02:26:19;;;;;;;7.22;2.95;;;0.30;28.80;;;0.15;63.14;100560.59;4954085;28;20208;-67
2022/04/02 02:28:48;;;;;;;4.10;3.05;;;0.30;29.60;;;0.14;63.20;100563.44;4953507;28;20212;-68
2022/04/02 02:31:27;;;;;;;3.10;2.80;;;0.30;30.00;;;0.10;63.06;100575.34;4952711;29;20250;-66
2022/04/02 02:36:51;;;;;;;4.25;2.30;;;0.30;31.80;;;0.15;63.81;100554.44;4952811;29;20360;-67
2022/04/02 02:39:21;;;;;;;4.47;2.70;;;0.30;32.60;;;0.16;63.69;100567.63;4954131;29;20267;-67
2022/04/02 02:42:08;;;;;;;5.75;2.45;;;0.30;32.80;;;0.11;63.35;100566.38;4953165;29;20196;-67
2022/04/02 02:44:45;;;;;;;3.47;2.45;;;0.30;33.20;;;0.14;63.47;100564.28;4954753;29;20204;-68
2022/04/02 02:47:19;;;;;;;7.50;3.08;;;0.30;34.00;;;0.13;63.70;100570.56;4970913;28;20575;-67
2022/04/02 02:49:50;;;;;;;5.70;3.60;;;0.30;34.50;;;0.14;63.59;100566.94;4956257;29;20220;-68
2022/04/02 02:52:27;;;;;;;3.85;3.00;;;0.30;35.10;;;0.09;64.01;100566.53;4956838;29;20188;-67
2022/04/02 02:54:59;;;;;;;3.70;2.53;;;0.30;35.80;;;0.08;63.92;100574.66;4955796;28;20231;-67
2022/04/02 02:57:28;;;;;;;4.95;2.92;;;0.30;36.40;;;0.12;63.82;100568.88;4954044;29;20250;-68
2022/04/02 02:59:57;;;;;;;7.22;3.45;;;0.30;37.60;;;0.15;63.59;100567.75;4970149;28;20180;-67
2022/04/02 03:02:26;;;;;;;8.75;3.92;;;0.30;37.70;;;0.08;64.04;100572.81;4955011;29;20214;-67
2022/04/02 03:04:58;;;;;;;6.05;3.08;;;0.30;38.10;;;0.03;63.94;100564.44;4953949;28;20200;-67
2022/04/02 03:07:38;;;;;;;3.65;2.28;;;0.20;39.30;;;0.16;63.87;100570.28;4954233;29;20287;-67
2022/04/02 03:10:13;;;;;;;2.47;1.92;;;0.30;39.30;;;0.10;64.23;100567.38;4952367;29;20219;-68
2022/04/02 03:12:42;;;;;;;3.17;2.80;;;0.30;39.90;;;0.12;64.01;100573.38;4953577;28;20180;-68
2022/04/02 03:15:12;;;;;;;3.45;2.45;;;0.30;40.40;;;0.09;64.09;100574.50;4952209;28;20624;-68
2022/04/02 03:17:43;;;;;;;5.63;3.33;;;0.20;40.70;;;0.02;64.40;100569.88;4952035;29;20196;-69
2022/04/02 03:20:14;;;;;;;3.35;2.45;;;0.20;41.50;;;0.05;64.33;100567.78;4951815;29;20222;-68
2022/04/02 03:22:45;;;;;;;4.55;3.03;;;0.20;42.00;;;0.05;64.07;100573.09;4951534;29;20686;-68
2022/04/02 03:25:18;;;;;;;3.88;2.88;;;0.20;42.80;;;0.03;64.51;100574.22;4953391;28;20591;-68
2022/04/02 03:27:49;;;;;;;3.53;2.35;;;0.20;43.50;;;-0.03;64.33;100580.94;4951890;29;20248;-67
2022/04/02 03:30:21;;;;;;;5.10;2.08;;;0.20;44.10;;;-0.07;65.10;100574.25;4953988;28;20297;-67
2022/04/02 03:32:53;;;;;;;5.75;2.45;;;0.10;45.60;;;-0.03;64.62;100586.28;4955926;29;20204;-67
2022/04/02 03:35:22;;;;;;;5.30;3.00;;;0.10;46.90;;;-0.16;65.01;100586.56;4955059;28;20218;-67
2022/04/02 03:37:55;;;;;;;9.50;3.97;;;0.10;47.50;;;-0.19;65.51;100588.66;4955605;29;20544;-68
2022/04/02 03:40:27;;;;;;;9.40;3.50;;;0.10;49.20;;;-0.13;65.12;100585.44;4956496;28;20188;-69
2022/04/02 03:42:58;;;;;;;3.30;2.67;;;0.10;50.90;;;-0.15;65.09;100592.75;4955485;29;20195;-68
2022/04/02 03:45:32;;;;;;;3.03;1.85;;;0.00;51.40;;;-0.24;65.57;100589.06;4971397;28;20223;-68
2022/04/02 03:48:02;;;;;;;3.70;2.65;;;0.00;52.80;;;-0.10;65.55;100587.84;4955339;29;20263;-67
2022/04/02 03:50:39;;;;;;;5.55;2.65;;;0.00;54.00;;;-0.13;65.38;100598.72;4955345;29;20211;-67
2022/04/02 03:53:14;;;;;;;3.47;2.65;;;0.00;54.20;;;-0.16;65.53;100601.69;4955429;29;20290;-67
2022/04/02 03:56:00;;;;;;;5.05;2.55;;;0.00;55.10;;;-0.23;66.02;100600.56;4955474;28;20278;-67
2022/04/02 03:58:38;;;;;;;3.13;2.45;;;0.00;56.20;;;-0.27;65.63;100604.47;4955320;29;20200;-64
2022/04/02 04:01:09;;;;;;;6.47;3.13;;;0.00;57.90;;;-0.15;65.73;100604.22;4955477;29;20214;-68
2022/04/02 04:03:39;;;;;;;3.42;2.80;;;0.00;58.40;;;-0.20;66.22;100605.63;4972136;28;20192;-67
2022/04/02 04:06:09;;;;;;;4.45;2.45;;;0.00;58.80;;;-0.13;65.52;100606.72;4955265;28;20237;-66
2022/04/02 04:08:40;;;;;;;5.28;2.55;;;0.00;60.40;;;-0.17;65.74;100610.63;4955328;29;20188;-65
2022/04/02 04:11:14;;;;;;;6.10;2.92;;;0.00;60.10;;;-0.15;65.81;100608.69;4955626;29;20254;-66
2022/04/02 04:13:45;;;;;;;6.88;3.13;;;0.00;61.20;;;-0.13;65.39;100607.56;4957007;28;20187;-67
2022/04/02 04:16:14;;;;;;;5.78;2.60;;;0.00;60.50;;;-0.14;65.82;100618.31;4955114;28;20212;-66
2022/04/02 04:18:44;;;;;;;3.20;2.85;;;0.00;61.70;;;-0.19;65.86;100609.94;4971695;28;20587;-66
2022/04/02 04:21:14;;;;;;;5.93;2.20;;;0.00;62.40;;;-0.19;65.99;100618.75;4955230;29;20196;-66
2022/04/02 04:23:46;;;;;;;15.30;4.28;;;0.00;63.20;;;-0.20;65.79;100617.09;4970863;28;20195;-68
2022/04/02 04:26:17;;;;;;;4.80;2.95;;;0.00;63.50;;;-0.27;66.20;100621.28;4955042;28;20216;-67
2022/04/02 04:28:47;;;;;;;3.83;3.10;;;0.00;65.00;;;-0.15;66.15;100619.34;4954863;29;20204;-66
2022/04/02 04:31:19;;;;;;;6.10;2.78;;;0.00;65.40;;;-0.24;66.25;100625.50;4954933;29;20240;-66
2022/04/02 04:33:50;;;;;;;2.88;2.13;;;0.00;65.30;;;-0.14;65.95;100624.50;4955801;28;20210;-68
2022/04/02 04:36:21;;;;;;;3.42;2.08;;;0.00;65.70;;;-0.22;66.14;100636.81;4956030;28;20208;-68
2022/04/02 04:38:52;;;;;;;5.20;3.03;;;0.00;64.80;;;-0.13;65.77;100633.31;4954666;29;20196;-68
2022/04/02 04:41:25;;;;;;;13.07;2.95;;;0.00;64.40;;;-0.09;65.80;100635.56;4954185;28;20243;-67
2022/04/02 04:43:59;;;;;;;5.88;2.90;;;0.00;64.50;;;-0.16;65.71;100639.75;4956060;28;20170;-68
2022/04/02 04:46:40;;;;;;;5.88;2.45;;;0.00;64.00;;;-0.10;65.92;100641.03;4954408;28;20272;-67
2022/04/02 04:49:12;;;;;;;5.90;2.78;;;0.00;63.50;;;-0.13;65.88;100646.59;4954322;29;20348;-67
2022/04/02 04:51:45;;;;;;;4.65;2.50;;;0.00;63.80;;;-0.27;66.54;100649.69;4954157;29;20240;-67
2022/04/02 04:54:14;;;;;;;7.22;3.35;;;0.00;64.70;;;-0.20;66.23;100649.00;4955639;29;20220;-69
2022/04/02 04:56:47;;;;;;;3.67;2.60;;;-0.10;67.40;;;-0.15;65.58;100645.94;5002090;23;20601;-73
2022/04/02 04:59:21;;;;;;;3.20;2.70;;;0.00;66.50;;;-0.14;65.50;100652.91;4991653;28;20290;-72
2022/04/02 05:01:51;;;;;;;7.07;3.03;;;0.00;65.60;;;-0.13;65.38;100657.25;4957580;28;20749;-72
2022/04/02 05:04:21;;;;;;;5.35;2.78;;;0.00;64.10;;;-0.17;65.97;100658.50;4957710;28;20294;-72
2022/04/02 05:07:32;;;;;;;6.70;3.25;;;0.00;65.70;;;-0.14;65.99;100663.53;4974068;28;20290;-74
2022/04/02 05:13:31;;;;;;;5.22;2.85;;;0.10;67.10;;;-0.04;65.42;100659.06;4973683;28;20205;-74
2022/04/02 05:16:00;;;;;;;4.65;2.55;;;0.10;64.60;;;0.04;65.22;100661.88;4957781;28;20644;-72
2022/04/02 05:18:30;;;;;;;6.65;2.95;;;0.10;65.00;;;0.04;65.66;100675.19;4974783;28;20234;-73
2022/04/02 05:21:02;;;;;;;3.75;2.65;;;0.10;63.20;;;0.05;65.55;100673.38;4957434;28;20215;-73
2022/04/02 05:23:33;;;;;;;9.38;2.85;;;0.10;62.30;;;0.01;65.19;100678.09;4957610;28;20195;-72
2022/04/02 05:26:02;;;;;;;5.80;3.03;;;0.10;61.50;;;-0.01;65.25;100669.44;4957195;28;20258;-72
2022/04/02 05:28:34;;;;;;;7.43;3.25;;;0.10;61.10;;;0.02;65.06;100679.81;4956825;28;20280;-74
2022/04/02 05:31:04;;;;;;;6.55;2.90;;;0.10;61.70;;;0.08;65.11;100676.59;4973578;28;20219;-73
2022/04/02 05:33:34;;;;;;;9.65;3.42;;;0.20;60.40;;;0.18;64.90;100680.09;4974208;28;20227;-73
2022/04/02 05:36:09;;;;;;;4.68;3.45;;;0.20;60.20;;;0.16;64.67;100687.34;4972840;28;20197;-73
2022/04/02 05:38:38;;;;;;;11.85;7.38;;;0.30;58.30;;;0.28;64.44;100683.59;4956413;28;20666;-73
2022/04/02 05:41:15;;;;;;;7.13;6.03;;;0.30;59.00;;;0.35;64.57;100687.34;4956200;28;20245;-72
2022/04/02 05:44:29;;;;;;;6.85;5.47;;;0.40;56.20;;;0.46;63.66;100699.66;4973284;28;20201;-72
2022/04/02 05:50:31;;;;;;;12.43;8.30;;;0.50;54.10;;;0.53;63.59;100700.81;4972517;28;20223;-74
2022/04/02 05:53:12;;;;;;;82.75;52.92;;;0.60;52.30;;;0.75;63.27;100702.28;4972695;28;20172;-73
2022/04/02 05:55:43;;;;;;;10.02;4.85;;;0.70;50.70;;;0.73;63.37;100698.91;4973450;28;20210;-73
2022/04/02 05:58:13;;;;;;;61.90;39.03;;;0.80;48.40;;;0.82;62.79;100698.06;4955777;28;20187;-73
2022/04/02 06:01:15;;;;;;;21.58;15.27;;;0.80;48.30;;;0.97;63.01;100711.78;4955606;28;20207;-73
2022/04/02 06:03:44;;;;;;;9.85;7.05;;;0.90;48.30;;;1.23;61.99;100716.28;4973164;28;20658;-72
2022/04/02 06:06:14;;;;;;;16.98;15.10;;;1.10;45.70;;;1.22;61.67;100719.94;4972741;28;20206;-72
2022/04/02 06:08:43;;;;;;;5.90;3.67;;;1.20;43.60;;;1.25;61.67;100717.00;4971830;28;20203;-73
2022/04/02 06:11:12;;;;;;;7.68;5.75;;;1.20;41.70;;;1.10;62.08;100721.13;4955716;28;20223;-73
2022/04/02 06:13:41;;;;;;;7.45;4.07;;;1.20;41.70;;;1.35;61.70;100726.78;4973226;28;20203;-73
2022/04/02 06:16:12;;;;;;;5.85;5.03;;;1.30;41.20;;;1.56;61.04;100732.69;4973213;28;20184;-73
2022/04/02 06:18:41;;;;;;;3.78;2.95;;;1.50;40.30;;;1.48;61.30;100725.44;4973150;28;20638;-73
2022/04/02 06:21:11;;;;;;;3.28;2.45;;;1.50;38.40;;;1.38;61.68;100726.47;4973293;28;20712;-72
2022/04/02 06:24:16;;;;;;;9.02;3.40;;;1.50;38.20;;;1.69;60.82;100733.22;4971449;28;20713;-72
2022/04/02 06:27:08;;;;;;;7.28;6.63;;;1.70;37.80;;;2.18;59.81;100730.06;4971512;28;20305;-72
2022/04/02 06:29:58;;;;;;;5.18;3.88;;;2.00;36.30;;;2.38;59.12;100736.06;4971039;28;20239;-73
2022/04/02 06:32:35;;;;;;;3.13;2.13;;;2.20;33.00;;;2.35;59.27;100727.53;4972639;28;20682;-72
2022/04/02 06:35:05;;;;;;;4.45;3.03;;;2.30;31.40;;;2.59;58.91;100733.94;4971676;28;20192;-73
2022/04/02 06:37:36;;;;;;;3.13;2.60;;;2.50;30.20;;;2.67;58.29;100735.81;4971309;28;20202;-73
2022/04/02 06:40:09;;;;;;;4.65;3.15;;;2.60;28.80;;;2.49;58.51;100732.34;4972936;28;20235;-72
2022/04/02 06:42:39;;;;;;;4.57;2.70;;;2.60;28.10;;;2.60;58.45;100737.44;4955555;28;20730;-74
2022/04/02 06:45:16;;;;;;;4.10;2.60;;;2.60;27.70;;;2.43;58.67;100730.28;4955497;28;20693;-74
2022/04/02 06:47:46;;;;;;;8.18;2.95;;;2.50;27.30;;;2.51;58.50;100736.56;4973004;28;20194;-73
2022/04/02 06:50:16;;;;;;;5.60;2.40;;;2.60;27.40;;;2.42;58.58;100741.97;4973110;28;20262;-73
2022/04/02 06:52:47;;;;;;;5.22;4.60;;;2.50;27.20;;;2.60;58.57;100740.13;4973137;28;20212;-73
2022/04/02 06:55:17;;;;;;;3.08;2.50;;;2.60;27.80;;;2.33;58.68;100733.03;4973470;28;20202;-73
2022/04/02 06:57:51;;;;;;;3.38;2.17;;;2.50;26.90;;;2.27;59.07;100741.66;4972656;28;20193;-73
2022/04/02 07:00:23;;;;;;;4.80;2.58;;;2.40;27.10;;;2.50;58.67;100740.22;4974583;28;20249;-73
2022/04/02 07:03:38;;;;;;;4.82;2.90;;;2.50;27.90;;;2.66;58.17;100739.50;4974627;28;20180;-73
2022/04/02 07:09:53;;;;;;;5.93;3.80;;;2.70;26.30;;;2.91;57.41;100733.31;4978213;28;20227;-73
2022/04/02 07:12:44;;;;;;;4.82;1.85;;;2.80;25.80;;;2.89;57.49;100746.03;4978647;28;20223;-74
2022/04/02 07:15:51;;;;;;;4.55;3.00;;;2.90;25.00;;;3.13;57.17;100740.00;4976443;28;20214;-74
2022/04/02 07:18:31;;;;;;;3.60;3.25;;;3.00;24.90;;;3.00;57.09;100748.41;4976627;28;20565;-74
2022/04/02 07:23:54;;;;;;;7.60;2.65;;;3.00;23.70;;;2.92;57.22;100751.03;4976172;28;20194;-74
2022/04/02 07:26:32;;;;;;;3.20;2.38;;;3.00;23.70;;;3.14;56.63;100752.38;4976087;28;20226;-74
2022/04/02 07:29:16;;;;;;;3.70;2.42;;;3.10;23.40;;;3.12;56.84;100754.34;4974895;28;20290;-73
2022/04/02 07:31:48;;;;;;;4.40;2.70;;;3.10;23.20;;;3.23;56.50;100753.25;4959076;28;20728;-74
2022/04/02 07:34:27;;;;;;;5.22;3.20;;;3.20;22.80;;;3.28;56.43;100754.47;4976763;28;20195;-74
2022/04/02 07:37:05;;;;;;;3.72;1.92;;;3.30;22.60;;;3.16;56.56;100757.53;4958634;28;20204;-74
2022/04/02 07:39:48;;;;;;;5.03;2.72;;;3.20;21.90;;;3.54;55.71;100762.44;4975995;28;20659;-73
2022/04/02 07:42:23;;;;;;;2.17;1.98;;;3.40;22.10;;;3.59;55.42;100764.63;4975377;28;20593;-74
2022/04/02 07:45:04;;;;;;;4.65;2.30;;;3.60;21.00;;;3.34;55.58;100761.03;4958326;28;20254;-74
2022/04/02 07:47:37;;;;;;;6.47;2.60;;;3.40;20.40;;;3.41;55.00;100762.88;4976294;28;20561;-73
2022/04/02 07:50:21;;;;;;;4.18;2.63;;;3.40;19.70;;;3.33;54.82;100765.53;4976220;28;20684;-74
2022/04/02 07:52:54;;;;;;;4.88;2.05;;;3.40;19.10;;;3.35;54.38;100762.66;4976041;28;20206;-74
2022/04/02 07:55:30;;;;;;;5.10;1.90;;;3.40;18.60;;;3.64;53.50;100773.03;4958326;28;20257;-72
2022/04/02 07:58:04;;;;;;;6.72;3.58;;;3.50;18.10;;;3.83;52.49;100762.91;4976018;28;20191;-74
2022/04/02 08:00:35;;;;;;;4.60;2.42;;;3.70;16.40;;;3.69;51.47;100766.19;4975494;28;20211;-72
2022/04/02 08:03:11;;;;;;;3.65;2.85;;;3.70;14.30;;;3.79;50.59;100776.78;4974949;28;20635;-74
2022/04/02 08:05:42;;;;;;;5.25;1.65;;;3.80;12.70;;;3.69;50.31;100771.53;4975322;28;20217;-73
2022/04/02 08:08:12;;;;;;;2.60;2.38;;;3.80;11.40;;;3.90;49.15;100780.00;4976091;28;20287;-72
2022/04/02 08:10:52;;;;;;;2.88;1.85;;;3.80;10.50;;;3.88;49.08;100755.22;4976707;28;20218;-73
2022/04/02 08:13:23;;;;;;;5.72;1.92;;;3.90;10.00;;;3.97;48.69;100774.00;4976444;28;20576;-74
2022/04/02 08:15:57;;;;;;;3.00;1.95;;;3.90;9.10;;;4.08;48.13;100777.22;4958061;28;20227;-73
2022/04/02 08:18:27;;;;;;;3.55;2.25;;;4.00;8.50;;;3.97;48.34;100779.38;4976367;28;20557;-74
2022/04/02 08:20:58;;;;;;;2.75;1.90;;;4.00;7.90;;;4.11;47.67;100776.06;4959328;28;20226;-74
2022/04/02 08:23:32;;;;;;;3.25;2.03;;;4.10;7.20;;;4.24;47.13;100779.94;4958978;28;20229;-74
2022/04/02 08:26:21;;;;;;;2.70;1.30;;;4.20;6.70;;;4.32;46.70;100774.59;4975667;28;20199;-74
2022/04/02 08:29:14;;;;;;;7.47;2.00;;;4.30;6.00;;;4.29;46.64;100768.72;4974988;28;20180;-74
2022/04/02 08:32:12;;;;;;;2.63;2.05;;;4.30;5.60;;;4.37;44.74;100784.81;4974597;28;20199;-72
2022/04/02 08:35:04;;;;;;;4.25;1.77;;;4.40;3.20;;;4.57;45.13;100772.78;4974907;28;20176;-73
2022/04/02 08:38:04;;;;;;;4.10;2.08;;;4.50;3.30;;;4.73;43.58;100769.28;4975361;28;20206;-73
2022/04/02 08:41:17;;;;;;;3.65;2.25;;;4.60;2.20;;;4.38;44.07;100784.66;4975144;28;20212;-74
2022/04/02 08:44:30;;;;;;;3.40;2.53;;;4.40;1.30;;;4.30;43.57;100778.44;4974943;28;20654;-72
2022/04/02 08:47:18;;;;;;;3.83;2.22;;;4.40;1.00;;;4.64;43.02;100794.41;4955537;28;20575;-72
2022/04/02 08:50:06;;;;;;;4.90;2.33;;;4.60;1.00;;;4.82;42.08;100785.19;4974536;28;20290;-74
2022/04/02 08:52:52;;;;;;;5.75;2.30;;;4.70;1.00;;;4.71;41.61;100788.19;4973376;28;20262;-73
2022/04/02 08:55:24;;;;;;;2.80;2.38;;;4.70;1.00;;;4.76;41.55;100793.91;4974427;28;20175;-73
2022/04/02 08:58:11;;;;;;;3.10;2.80;;;4.70;1.00;;;4.84;41.35;100800.28;4974915;28;20619;-74
2022/04/02 09:00:46;;;;;;;3.83;2.17;;;4.80;1.00;;;4.70;41.45;100799.06;4975092;28;20266;-73
2022/04/02 09:04:06;;;;;;;3.08;2.65;;;4.80;1.00;;;4.54;42.14;100799.09;4975247;28;20171;-73
2022/04/02 09:07:37;;;;;;;3.60;3.25;;;4.60;1.00;;;4.44;42.49;100825.19;4974517;28;20199;-73
2022/04/02 09:11:06;;;;;;;2.67;2.45;;;4.60;1.00;;;4.59;42.28;100804.78;4975122;28;20299;-73
2022/04/02 09:14:32;;;;;;;4.47;3.50;;;4.50;1.00;;;4.51;42.02;100799.38;4974446;28;20199;-74
2022/04/02 09:17:35;;;;;;;6.25;2.50;;;4.60;1.00;;;4.70;41.72;100810.66;4975117;28;20182;-74
2022/04/02 09:20:39;;;;;;;2.33;1.70;;;4.60;1.00;;;4.59;41.64;100804.78;4975022;28;20221;-73
2022/04/02 09:23:15;;;;;;;7.97;2.53;;;4.70;1.00;;;4.65;41.85;100799.59;4975510;28;20195;-74
2022/04/02 09:26:35;;;;;;;2.88;2.35;;;4.70;1.00;;;4.80;41.64;100794.41;4975643;28;20266;-73
2022/04/02 09:29:15;;;;;;;5.43;3.35;;;4.70;1.00;;;5.11;40.62;100792.72;4958620;28;20227;-74
2022/04/02 09:32:55;;;;;;;3.03;2.50;;;5.00;1.00;;;4.99;40.89;100806.63;4964131;28;20203;-72
2022/04/02 09:35:55;;;;;;;4.88;2.80;;;5.10;1.00;;;5.22;40.93;100804.94;4980108;28;20183;-74
2022/04/02 09:39:03;;;;;;;3.95;2.95;;;5.10;1.00;;;5.03;41.35;100799.94;4978218;28;20176;-73
2022/04/02 09:42:03;;;;;;;3.58;2.00;;;5.10;1.00;;;5.15;41.12;100795.91;4974228;28;20264;-73
2022/04/02 09:44:49;;;;;;;3.25;2.05;;;5.10;1.00;;;5.24;40.89;100808.28;4973926;28;20645;-73
2022/04/02 09:47:25;;;;;;;6.47;2.63;;;5.20;1.00;;;5.24;40.44;100792.19;4974538;28;20191;-73
2022/04/02 09:50:09;;;;;;;18.55;14.23;;;5.20;1.00;;;5.04;41.07;100801.59;4974462;28;20213;-74
2022/04/02 09:52:42;;;;;;;3.78;2.58;;;5.10;1.00;;;5.13;40.74;100811.34;4975281;28;20203;-74
2022/04/02 09:55:22;;;;;;;4.30;3.25;;;5.10;1.00;;;5.12;40.98;100799.78;4957700;28;20576;-73
2022/04/02 09:58:37;;;;;;;6.93;3.65;;;5.10;1.00;;;5.15;40.70;100791.38;4977566;28;20186;-76
2022/04/02 10:01:11;;;;;;;4.00;3.70;;;5.20;1.00;;;5.05;41.04;100797.91;4981303;28;20234;-74
2022/04/02 10:03:53;;;;;;;9.23;3.00;;;5.10;1.00;;;5.44;40.40;100796.19;4990927;28;20223;-74
2022/04/02 10:06:28;;;;;;;12.07;2.75;;;5.40;1.00;;;5.64;40.53;100794.78;4986718;28;20203;-73
2022/04/02 10:09:20;;;;;;;3.50;3.20;;;5.50;1.00;;;5.53;39.85;100787.09;4989928;28;20171;-74
2022/04/02 10:11:53;;;;;;;3.58;2.55;;;5.60;1.00;;;5.40;40.55;100786.81;4987774;28;20222;-73
2022/04/02 10:14:25;;;;;;;8.00;3.05;;;5.50;1.00;;;5.94;40.05;100787.84;4986025;28;20630;-73
2022/04/02 10:16:58;;;;;;;3.85;2.95;;;5.70;1.00;;;6.25;39.15;100787.81;4980968;28;20211;-77
2022/04/02 10:19:31;;;;;;;3.08;2.20;;;6.10;1.00;;;5.86;39.38;100786.97;4980475;28;20591;-73
2022/04/02 10:22:05;;;;;;;3.55;2.67;;;6.00;1.00;;;6.06;38.92;100788.25;4974059;28;20199;-74
2022/04/02 10:24:38;;;;;;;4.85;2.75;;;6.00;1.00;;;6.35;38.00;100791.13;4973391;28;20258;-73
2022/04/02 10:27:11;;;;;;;3.90;3.17;;;6.20;1.00;;;6.32;37.96;100778.06;4973386;28;20569;-73
2022/04/02 10:30:04;;;;;;;4.55;2.55;;;6.30;1.00;;;6.60;38.14;100782.91;4973496;28;20292;-75
2022/04/02 10:32:57;;;;;;;5.72;2.65;;;6.40;1.00;;;6.47;38.71;100781.66;4972942;28;20203;-74
2022/04/02 10:35:29;;;;;;;3.90;2.50;;;6.50;1.00;;;7.04;37.42;100796.50;4973207;28;20199;-75
2022/04/02 10:38:12;;;;;;;5.43;2.92;;;6.80;1.00;;;7.08;37.44;100781.66;4955649;28;20184;-74
2022/04/02 10:40:47;;;;;;;3.90;3.03;;;6.90;1.00;;;7.14;37.38;100773.72;4987654;23;20231;-67
2022/04/02 10:43:26;;;;;;;5.82;2.80;;;7.00;1.00;;;7.45;36.82;100781.66;4985207;28;20186;-66
2022/04/02 10:45:56;;;;;;;2.90;2.70;;;7.30;1.00;;;7.34;36.90;100780.25;4986994;28;20218;-67
2022/04/02 10:48:50;;;;;;;3.95;2.50;;;7.30;1.00;;;7.41;36.82;100770.41;4974586;28;20183;-68
2022/04/02 10:51:26;;;;;;;3.85;2.78;;;7.30;1.00;;;6.64;37.88;100770.75;4973127;28;20190;-69
2022/04/02 10:54:07;;;;;;;3.20;2.55;;;6.90;1.00;;;6.67;37.90;100763.19;5504014;23;20185;31
2022/04/02 10:56:44;;;;;;;8.73;2.78;;;6.70;1.00;;;6.66;37.99;100768.75;4897449;29;20221;-65
2022/04/02 10:59:15;;;;;;;5.10;2.90;;;6.60;1.00;;;6.57;37.97;100759.91;4898856;29;20186;-63
2022/04/02 11:01:48;;;;;;;3.97;2.22;;;6.50;1.00;;;6.50;38.14;100770.53;4898572;29;20182;-66
2022/04/02 11:04:30;;;;;;;3.35;2.25;;;6.50;1.00;;;6.41;38.50;100776.97;4898542;29;20198;-65
2022/04/02 11:07:01;;;;;;;5.97;2.10;;;6.40;1.00;;;6.56;38.50;100763.59;4899234;29;20190;-65
2022/04/02 11:09:36;;;;;;;3.05;1.83;;;6.50;1.00;;;6.49;38.24;100768.84;4899206;29;20265;-65
2022/04/02 11:12:08;;;;;;;3.40;2.30;;;6.50;1.00;;;6.79;38.03;100767.13;4898610;29;20177;-65
2022/04/02 11:14:43;;;;;;;5.30;2.53;;;6.70;1.00;;;7.02;37.19;100764.38;4899012;29;20305;-66
2022/04/02 11:17:30;;;;;;;3.75;2.35;;;6.90;1.00;;;6.71;37.90;100771.72;4899096;29;20559;-65
2022/04/02 11:20:14;;;;;;;3.67;1.90;;;6.70;1.00;;;6.76;37.60;100769.34;4898867;29;20185;-66
2022/04/02 11:23:15;;;;;;;3.85;2.17;;;6.80;1.00;;;6.70;38.33;100765.50;4899271;29;20186;-65
2022/04/02 11:25:49;;;;;;;5.70;2.70;;;6.80;1.00;;;6.63;39.69;100779.88;4894661;29;20698;-65
2022/04/02 11:28:21;;;;;;;2.85;2.25;;;6.60;1.00;;;5.88;42.20;100779.63;4898412;29;20197;-66